createdAt,value
2023-01-28T00:01:44.973Z,14.63
2023-01-28T00:04:13.367Z,14.03
2023-01-28T00:06:41.718Z,13.53
2023-01-28T00:09:10.076Z,13.30
2023-01-28T00:11:39.922Z,14.43
2023-01-28T00:14:08.457Z,12.30
2023-01-28T00:16:37.140Z,13.80
2023-01-28T00:19:05.490Z,11.83
2023-01-28T00:21:33.818Z,12.00
2023-01-28T00:24:02.173Z,10.40
2023-01-28T00:26:30.500Z,9.80
2023-01-28T00:29:00.196Z,9.50
2023-01-28T00:31:29.348Z,9.93
2023-01-28T00:33:58.400Z,9.80
2023-01-28T00:36:28.450Z,8.83
2023-01-28T00:38:58.928Z,9.40
2023-01-28T00:41:31.049Z,9.10
2023-01-28T00:44:01.306Z,8.83
2023-01-28T00:46:30.922Z,9.17
2023-01-28T00:48:59.401Z,9.03
2023-01-28T00:51:27.880Z,9.10
2023-01-28T00:53:56.567Z,10.17
2023-01-28T00:56:25.112Z,11.47
2023-01-28T00:58:53.868Z,12.10
2023-01-28T01:01:25.072Z,12.87
2023-01-28T01:03:57.846Z,12.10
2023-01-28T01:06:26.773Z,13.50
2023-01-28T01:08:55.134Z,12.43
2023-01-28T01:11:23.516Z,11.83
2023-01-28T01:13:54.963Z,12.87
2023-01-28T01:16:27.008Z,14.33
2023-01-28T01:18:56.192Z,13.60
2023-01-28T01:21:27.668Z,14.63
2023-01-28T01:23:57.236Z,13.80
2023-01-28T01:26:27.459Z,12.50
2023-01-28T01:28:56.340Z,13.83
2023-01-28T01:31:26.159Z,12.83
2023-01-28T01:33:54.678Z,11.63
2023-01-28T01:36:23.840Z,12.07
2023-01-28T01:38:55.358Z,12.27
2023-01-28T01:41:27.693Z,11.80
2023-01-28T01:43:58.487Z,11.00
2023-01-28T01:46:34.930Z,9.90
2023-01-28T01:49:15.679Z,8.60
2023-01-28T01:51:46.356Z,9.13
2023-01-28T01:54:15.627Z,9.40
2023-01-28T01:56:46.016Z,9.30
2023-01-28T01:59:16.923Z,9.27
2023-01-28T02:01:47.092Z,8.70
2023-01-28T02:04:21.410Z,9.43
2023-01-28T02:06:50.125Z,8.20
2023-01-28T02:09:25.221Z,9.30
2023-01-28T02:11:56.266Z,9.70
2023-01-28T02:14:31.433Z,9.77
2023-01-28T02:17:03.250Z,9.60
2023-01-28T02:19:38.236Z,10.13
2023-01-28T02:22:26.252Z,9.47
2023-01-28T02:25:31.453Z,9.57
2023-01-28T02:28:12.604Z,9.83
2023-01-28T02:30:45.975Z,10.70
2023-01-28T02:33:19.423Z,10.13
2023-01-28T02:35:51.175Z,10.80
2023-01-28T02:38:25.164Z,10.20
2023-01-28T02:41:07.058Z,9.80
2023-01-28T02:43:38.937Z,11.03
2023-01-28T02:46:36.629Z,10.53
2023-01-28T02:49:07.887Z,11.40
2023-01-28T02:51:47.862Z,11.37
2023-01-28T02:54:28.452Z,11.30
2023-01-28T02:57:08.738Z,10.90
2023-01-28T02:59:46.374Z,11.30
2023-01-28T03:02:24.320Z,11.33
2023-01-28T03:04:59.673Z,11.40
2023-01-28T03:07:31.033Z,11.80
2023-01-28T03:10:04.415Z,11.60
2023-01-28T03:12:52.258Z,10.90
2023-01-28T03:15:43.526Z,11.13
2023-01-28T03:18:34.022Z,10.97
2023-01-28T03:21:26.195Z,11.17
2023-01-28T03:24:19.275Z,10.87
2023-01-28T03:27:13.375Z,10.90
2023-01-28T03:30:02.759Z,11.03
2023-01-28T03:32:53.477Z,11.17
2023-01-28T03:35:43.020Z,11.67
2023-01-28T03:38:21.071Z,12.23
2023-01-28T03:40:54.427Z,11.97
2023-01-28T03:43:23.296Z,11.67
2023-01-28T03:45:52.579Z,12.57
2023-01-28T03:48:25.093Z,12.17
2023-01-28T03:50:54.525Z,12.03
2023-01-28T03:53:24.515Z,11.97
2023-01-28T03:55:56.653Z,11.43
2023-01-28T03:58:27.165Z,11.90
2023-01-28T04:00:55.971Z,12.50
2023-01-28T04:03:26.204Z,12.63
2023-01-28T04:06:05.856Z,13.47
2023-01-28T04:08:59.339Z,13.00
2023-01-28T04:11:33.056Z,12.33
2023-01-28T04:14:04.365Z,13.23
2023-01-28T04:16:50.263Z,12.87
2023-01-28T04:19:20.503Z,13.60
2023-01-28T04:21:49.370Z,14.17
2023-01-28T04:24:18.209Z,14.40
2023-01-28T04:26:46.635Z,13.57
2023-01-28T04:29:16.806Z,13.10
2023-01-28T04:31:45.729Z,13.20
2023-01-28T04:34:34.354Z,13.30
2023-01-28T04:37:15.358Z,13.30
2023-01-28T04:40:02.461Z,13.77
2023-01-28T04:42:44.966Z,12.50
2023-01-28T04:45:35.769Z,13.50
2023-01-28T04:48:14.957Z,12.80
2023-01-28T04:51:03.149Z,12.87
2023-01-28T04:53:43.796Z,12.80
2023-01-28T04:56:38.354Z,12.70
2023-01-28T04:59:07.213Z,13.17
2023-01-28T05:01:38.104Z,13.47
2023-01-28T05:04:07.962Z,13.10
2023-01-28T05:06:40.530Z,13.67
2023-01-28T05:09:13.437Z,13.53
2023-01-28T05:11:45.120Z,15.40
2023-01-28T05:14:15.001Z,14.53
2023-01-28T05:16:47.425Z,14.23
2023-01-28T05:19:16.573Z,14.30
2023-01-28T05:21:48.968Z,13.90
2023-01-28T05:24:41.800Z,14.30
2023-01-28T05:27:10.396Z,13.87
2023-01-28T05:29:38.848Z,16.33
2023-01-28T05:32:07.486Z,15.23
2023-01-28T05:34:35.926Z,15.33
2023-01-28T05:37:11.526Z,15.13
2023-01-28T05:39:40.832Z,14.60
2023-01-28T05:42:09.606Z,15.07
2023-01-28T05:44:43.506Z,13.77
2023-01-28T05:47:23.271Z,14.00
2023-01-28T05:50:16.002Z,15.33
2023-01-28T05:52:47.532Z,16.17
2023-01-28T05:55:26.796Z,16.07
2023-01-28T05:57:55.603Z,15.30
2023-01-28T06:00:25.823Z,15.60
2023-01-28T06:02:54.613Z,15.30
2023-01-28T06:05:23.837Z,14.03
2023-01-28T06:07:53.794Z,15.80
2023-01-28T06:10:22.100Z,14.20
2023-01-28T06:12:50.566Z,16.93
2023-01-28T06:15:44.923Z,15.30
2023-01-28T06:18:25.759Z,15.83
2023-01-28T06:20:55.214Z,17.10
2023-01-28T06:23:25.052Z,17.43
2023-01-28T06:25:55.995Z,15.50
2023-01-28T06:28:26.206Z,15.43
2023-01-28T06:30:56.981Z,16.93
2023-01-28T06:33:25.830Z,17.40
2023-01-28T06:35:54.147Z,16.57
2023-01-28T06:38:22.548Z,15.73
2023-01-28T06:40:56.216Z,16.33
2023-01-28T06:43:28.268Z,16.43
2023-01-28T06:45:57.223Z,15.90
2023-01-28T06:48:26.029Z,17.40
2023-01-28T06:50:54.492Z,17.43
2023-01-28T06:53:23.361Z,16.77
2023-01-28T06:55:51.850Z,17.53
2023-01-28T06:58:21.526Z,17.00
2023-01-28T07:00:49.944Z,18.43
2023-01-28T07:03:18.398Z,17.53
2023-01-28T07:05:46.804Z,17.37
2023-01-28T07:08:15.119Z,16.73
2023-01-28T07:10:44.022Z,16.67
2023-01-28T07:13:12.763Z,17.83
2023-01-28T07:15:42.745Z,17.83
2023-01-28T07:18:11.150Z,16.63
2023-01-28T07:20:39.552Z,17.83
2023-01-28T07:23:07.962Z,18.10
2023-01-28T07:25:36.305Z,18.10
2023-01-28T07:28:04.746Z,18.60
2023-01-28T07:30:33.251Z,17.87
2023-01-28T07:33:03.063Z,17.30
2023-01-28T07:35:32.514Z,16.50
2023-01-28T07:38:02.277Z,18.30
2023-01-28T07:40:30.770Z,17.17
2023-01-28T07:42:59.239Z,17.23
2023-01-28T07:45:30.646Z,19.37
2023-01-28T07:48:00.828Z,18.13
2023-01-28T07:50:32.704Z,19.23
2023-01-28T07:53:03.699Z,17.73
2023-01-28T07:55:32.269Z,19.63
2023-01-28T07:58:01.575Z,18.50
2023-01-28T08:00:31.887Z,18.57
2023-01-28T08:03:01.573Z,18.50
2023-01-28T08:05:41.142Z,17.00
2023-01-28T08:08:10.179Z,18.27
2023-01-28T08:10:40.800Z,18.80
2023-01-28T08:13:11.153Z,18.83
2023-01-28T08:15:39.637Z,19.63
2023-01-28T08:18:09.328Z,18.67
2023-01-28T08:20:39.193Z,18.40
2023-01-28T08:23:08.999Z,18.87
2023-01-28T08:25:37.452Z,19.20
2023-01-28T08:28:06.994Z,19.57
2023-01-28T08:30:38.189Z,18.90
2023-01-28T08:33:08.201Z,18.90
2023-01-28T08:35:40.734Z,18.17
2023-01-28T08:38:10.356Z,18.43
2023-01-28T08:40:39.166Z,18.30
2023-01-28T08:43:08.456Z,18.37
2023-01-28T08:45:36.782Z,17.63
2023-01-28T08:48:07.468Z,19.30
2023-01-28T08:50:38.560Z,19.37
2023-01-28T08:53:10.959Z,17.43
2023-01-28T08:55:39.892Z,18.10
2023-01-28T08:58:11.732Z,17.07
2023-01-28T09:00:41.075Z,18.23
2023-01-28T09:03:09.665Z,18.67
2023-01-28T09:05:38.634Z,16.57
2023-01-28T09:08:10.002Z,15.70
2023-01-28T09:10:38.653Z,16.07
2023-01-28T09:13:07.448Z,16.27
2023-01-28T09:15:36.737Z,15.50
2023-01-28T09:18:05.673Z,16.73
2023-01-28T09:20:34.646Z,16.10
2023-01-28T09:23:03.481Z,15.33
2023-01-28T09:25:33.274Z,16.17
2023-01-28T09:28:01.610Z,15.10
2023-01-28T09:30:30.569Z,15.03
2023-01-28T09:32:59.568Z,15.07
2023-01-28T09:35:27.951Z,14.83
2023-01-28T09:37:58.647Z,14.63
2023-01-28T09:40:35.953Z,16.00
2023-01-28T09:43:21.611Z,16.77
2023-01-28T09:45:51.802Z,16.20
2023-01-28T09:48:23.082Z,16.27
2023-01-28T09:50:54.811Z,15.80
2023-01-28T09:53:26.312Z,15.47
2023-01-28T09:55:58.456Z,14.17
2023-01-28T09:58:26.929Z,14.67
2023-01-28T10:01:01.226Z,16.03
2023-01-28T10:03:47.625Z,14.47
2023-01-28T10:06:27.473Z,13.97
2023-01-28T10:09:15.869Z,14.00
2023-01-28T10:11:57.872Z,13.13
2023-01-28T10:14:41.988Z,13.87
2023-01-28T10:17:18.257Z,13.43
2023-01-28T10:19:51.411Z,12.93
2023-01-28T10:22:23.578Z,14.03
2023-01-28T10:24:57.936Z,14.67
2023-01-28T10:27:32.741Z,13.67
2023-01-28T10:30:10.997Z,12.90
2023-01-28T10:32:47.151Z,13.17
2023-01-28T10:35:15.603Z,12.70
2023-01-28T10:37:44.096Z,13.00
2023-01-28T10:40:16.679Z,13.43
2023-01-28T10:42:47.214Z,12.77
2023-01-28T10:45:20.529Z,11.87
2023-01-28T10:47:53.792Z,12.97
2023-01-28T10:50:29.070Z,12.97
2023-01-28T10:52:59.152Z,13.27
2023-01-28T10:55:30.475Z,12.87
2023-01-28T10:58:00.806Z,13.30
2023-01-28T11:00:32.866Z,12.60
2023-01-28T11:03:01.727Z,11.73
2023-01-28T11:05:31.801Z,13.20
2023-01-28T11:08:14.674Z,13.20
2023-01-28T11:10:44.132Z,15.73
2023-01-28T11:13:18.931Z,16.40
2023-01-28T11:15:53.606Z,13.67
2023-01-28T11:18:25.622Z,15.20
2023-01-28T11:20:59.031Z,19.40
2023-01-28T11:23:30.841Z,14.90
2023-01-28T11:26:07.766Z,16.33
2023-01-28T11:28:42.091Z,17.57
2023-01-28T11:31:14.773Z,19.23
2023-01-28T11:33:47.330Z,20.70
2023-01-28T11:36:18.516Z,19.97
2023-01-28T11:38:52.983Z,21.00
2023-01-28T11:41:28.550Z,19.23
2023-01-28T11:44:00.347Z,18.90
2023-01-28T11:46:59.755Z,18.63
2023-01-28T11:49:39.247Z,18.33
2023-01-28T11:52:16.814Z,18.83
2023-01-28T11:54:55.346Z,18.50
2023-01-28T11:57:27.662Z,19.03
2023-01-28T12:00:11.580Z,19.37
2023-01-28T12:02:53.826Z,19.23
2023-01-28T12:05:49.824Z,17.93
2023-01-28T12:08:24.968Z,17.97
2023-01-28T12:11:16.275Z,18.03
2023-01-28T12:14:06.989Z,17.73
2023-01-28T12:16:48.043Z,17.90
2023-01-28T12:19:30.079Z,18.67
2023-01-28T12:22:24.265Z,19.07
2023-01-28T12:25:11.725Z,19.40
2023-01-28T12:27:52.213Z,18.73
2023-01-28T12:30:35.869Z,18.33
2023-01-28T12:33:34.649Z,18.57
2023-01-28T12:36:12.423Z,17.97
2023-01-28T12:38:50.260Z,19.97
2023-01-28T12:41:23.749Z,19.10
2023-01-28T12:43:59.822Z,17.67
2023-01-28T12:46:41.483Z,18.57
2023-01-28T12:49:18.078Z,18.47
2023-01-28T12:51:55.859Z,18.60
2023-01-28T12:54:31.251Z,17.93
2023-01-28T12:57:00.303Z,17.70
2023-01-28T12:59:33.381Z,18.17
2023-01-28T13:02:23.415Z,19.23
2023-01-28T13:05:05.458Z,19.03
2023-01-28T13:07:40.712Z,20.10
2023-01-28T13:10:18.825Z,19.27
2023-01-28T13:12:48.844Z,19.07
2023-01-28T13:15:19.874Z,17.30
2023-01-28T13:17:59.129Z,19.70
2023-01-28T13:20:38.523Z,18.37
2023-01-28T13:23:23.016Z,19.30
2023-01-28T13:25:53.287Z,17.63
2023-01-28T13:28:30.327Z,20.17
2023-01-28T13:31:08.768Z,18.43
2023-01-28T13:33:39.409Z,19.67
2023-01-28T13:36:25.168Z,19.03
2023-01-28T13:39:03.680Z,18.20
2023-01-28T13:41:40.018Z,18.53
2023-01-28T13:44:19.901Z,18.83
2023-01-28T13:46:48.708Z,18.73
2023-01-28T13:49:22.575Z,19.67
2023-01-28T13:52:01.263Z,18.90
2023-01-28T13:54:32.938Z,18.43
2023-01-28T13:57:21.694Z,19.10
2023-01-28T13:59:59.943Z,18.07
2023-01-28T14:03:03.894Z,18.20
2023-01-28T14:06:11.619Z,18.90
2023-01-28T14:08:55.726Z,17.40
2023-01-28T14:11:59.858Z,18.50
2023-01-28T14:14:59.723Z,18.47
2023-01-28T14:17:37.256Z,19.17
2023-01-28T14:20:07.101Z,18.30
2023-01-28T14:22:37.408Z,19.50
2023-01-28T14:25:16.434Z,17.87
2023-01-28T14:27:48.621Z,19.93
2023-01-28T14:30:24.876Z,17.90
2023-01-28T14:32:55.252Z,19.17
2023-01-28T14:35:30.024Z,19.07
2023-01-28T14:38:00.460Z,20.20
2023-01-28T14:40:31.640Z,18.80
2023-01-28T14:43:00.305Z,18.73
2023-01-28T14:45:49.906Z,17.93
2023-01-28T14:48:33.643Z,18.67
2023-01-28T14:51:21.340Z,19.13
2023-01-28T14:54:22.069Z,18.87
2023-01-28T14:57:06.391Z,17.87
2023-01-28T14:59:42.293Z,18.87
2023-01-28T15:02:20.112Z,19.40
2023-01-28T15:04:49.129Z,18.47
2023-01-28T15:07:20.487Z,18.13
2023-01-28T15:09:49.644Z,19.17
2023-01-28T15:12:19.723Z,18.80
2023-01-28T15:14:49.082Z,19.40
2023-01-28T15:17:26.615Z,19.83
2023-01-28T15:19:57.493Z,19.60
2023-01-28T15:22:30.313Z,20.83
2023-01-28T15:24:59.318Z,19.33
2023-01-28T15:27:31.386Z,18.70
2023-01-28T15:30:02.594Z,20.27
2023-01-28T15:32:33.036Z,19.47
2023-01-28T15:35:02.369Z,19.00
2023-01-28T15:37:31.066Z,19.47
2023-01-28T15:40:06.069Z,19.20
2023-01-28T15:42:36.485Z,20.87
2023-01-28T15:45:05.797Z,18.97
2023-01-28T15:47:35.572Z,20.03
2023-01-28T15:50:07.130Z,19.80
2023-01-28T15:52:37.900Z,20.33
2023-01-28T15:55:08.473Z,19.20
2023-01-28T15:57:38.534Z,19.13
2023-01-28T16:00:15.013Z,17.20
2023-01-28T16:02:49.062Z,18.37
2023-01-28T16:05:30.138Z,20.13
2023-01-28T16:08:05.127Z,18.87
2023-01-28T16:10:33.786Z,20.53
2023-01-28T16:13:07.406Z,20.27
2023-01-28T16:15:38.526Z,20.97
2023-01-28T16:18:08.285Z,20.87
2023-01-28T16:20:36.910Z,20.63
2023-01-28T16:23:18.877Z,18.97
2023-01-28T16:25:47.490Z,18.63
2023-01-28T16:28:20.995Z,20.83
2023-01-28T16:30:49.624Z,18.47
2023-01-28T16:33:21.141Z,20.63
2023-01-28T16:36:05.476Z,17.53
2023-01-28T16:38:36.193Z,18.50
2023-01-28T16:41:05.269Z,20.33
2023-01-28T16:46:07.900Z,20.20
2023-01-28T16:48:37.809Z,19.90
2023-01-28T16:51:06.505Z,19.83
2023-01-28T16:53:35.534Z,19.97
2023-01-28T16:56:04.154Z,20.27
2023-01-28T16:58:32.528Z,20.50
2023-01-28T17:01:02.797Z,20.83
2023-01-28T17:03:31.409Z,20.37
2023-01-28T17:05:59.951Z,19.77
2023-01-28T17:08:28.669Z,20.00
2023-01-28T17:10:57.641Z,19.67
2023-01-28T17:13:26.464Z,21.50
2023-01-28T17:15:55.032Z,20.73
2023-01-28T17:18:26.271Z,21.10
2023-01-28T17:20:55.127Z,21.63
2023-01-28T17:23:24.359Z,20.77
2023-01-28T17:25:52.789Z,21.60
2023-01-28T17:28:21.329Z,22.77
2023-01-28T17:30:49.956Z,21.67
2023-01-28T17:33:18.500Z,22.47
2023-01-28T17:35:51.474Z,21.13
2023-01-28T17:38:19.874Z,22.30
2023-01-28T17:40:48.808Z,23.23
2023-01-28T17:43:17.655Z,20.87
2023-01-28T17:45:47.144Z,23.73
2023-01-28T17:48:15.776Z,23.40
2023-01-28T17:50:44.251Z,23.20
2023-01-28T17:53:14.208Z,23.37
2023-01-28T17:55:42.788Z,22.17
2023-01-28T17:58:11.400Z,23.70
2023-01-28T18:00:40.076Z,22.27
2023-01-28T18:03:08.667Z,22.40
2023-01-28T18:05:37.268Z,23.93
2023-01-28T18:08:06.189Z,23.80
2023-01-28T18:10:36.769Z,24.97
2023-01-28T18:13:05.386Z,22.43
2023-01-28T18:15:33.884Z,23.53
2023-01-28T18:18:02.302Z,24.37
2023-01-28T18:20:30.673Z,24.40
2023-01-28T18:22:59.139Z,26.20
2023-01-28T18:25:27.630Z,22.87
2023-01-28T18:27:57.383Z,22.30
2023-01-28T18:30:25.943Z,22.17
2023-01-28T18:32:54.263Z,23.23
2023-01-28T18:35:22.607Z,22.97
2023-01-28T18:37:53.905Z,22.87
2023-01-28T18:40:22.630Z,22.63
2023-01-28T18:42:50.989Z,24.40
2023-01-28T18:45:22.434Z,20.83
2023-01-28T18:47:50.938Z,24.20
2023-01-28T18:50:19.561Z,24.30
2023-01-28T18:52:48.081Z,22.47
2023-01-28T18:55:16.831Z,22.20
2023-01-28T18:57:45.537Z,20.87
2023-01-28T19:00:14.754Z,22.77
2023-01-28T19:02:44.725Z,23.50
2023-01-28T19:05:13.593Z,22.93
2023-01-28T19:07:42.468Z,22.53
2023-01-28T19:10:11.760Z,22.77
2023-01-28T19:12:40.644Z,25.23
2023-01-28T19:15:10.245Z,21.33
2023-01-28T19:17:38.777Z,22.00
2023-01-28T19:20:10.429Z,24.33
2023-01-28T19:22:40.348Z,24.27
2023-01-28T19:25:11.380Z,24.17
2023-01-28T19:27:39.912Z,22.10
2023-01-28T19:30:10.264Z,21.47
2023-01-28T19:32:38.706Z,25.30
2023-01-28T19:35:09.255Z,26.47
2023-01-28T19:37:37.745Z,29.53
2023-01-28T19:40:07.402Z,24.87
2023-01-28T19:42:35.910Z,26.53
2023-01-28T19:45:06.084Z,25.93
2023-01-28T19:47:34.471Z,26.30
2023-01-28T19:50:03.033Z,25.77
2023-01-28T19:52:33.382Z,26.83
2023-01-28T19:55:02.194Z,26.00
2023-01-28T19:57:30.875Z,24.97
2023-01-28T19:59:59.789Z,24.40
2023-01-28T20:02:28.883Z,25.60
2023-01-28T20:05:00.875Z,24.37
2023-01-28T20:07:29.986Z,27.80
2023-01-28T20:10:00.107Z,27.47
2023-01-28T20:12:29.638Z,28.57
2023-01-28T20:15:01.094Z,27.93
2023-01-28T20:17:34.357Z,27.20
2023-01-28T20:20:03.386Z,25.20
2023-01-28T20:22:33.781Z,28.50
2023-01-28T20:25:03.829Z,26.23
2023-01-28T20:27:32.440Z,26.57
2023-01-28T20:30:01.278Z,25.70
2023-01-28T20:32:29.882Z,26.53
2023-01-28T20:34:58.259Z,27.43
2023-01-28T20:37:26.731Z,27.70
2023-01-28T20:39:55.509Z,26.27
2023-01-28T20:42:25.752Z,27.50
2023-01-28T20:44:54.241Z,30.13
2023-01-28T20:47:22.837Z,28.23
2023-01-28T20:49:51.376Z,25.43
2023-01-28T20:52:19.746Z,26.13
2023-01-28T20:54:49.478Z,26.73
2023-01-28T20:57:18.696Z,25.63
2023-01-28T20:59:48.725Z,27.00
2023-01-28T21:02:17.729Z,26.30
2023-01-28T21:04:46.391Z,28.90
2023-01-28T21:07:14.836Z,27.50
2023-01-28T21:09:43.396Z,25.23
2023-01-28T21:12:11.774Z,26.07
2023-01-28T21:14:40.318Z,27.07
2023-01-28T21:17:10.475Z,28.17
2023-01-28T21:19:38.913Z,29.40
2023-01-28T21:22:07.976Z,26.20
2023-01-28T21:24:36.468Z,29.53
2023-01-28T21:27:04.867Z,28.43
2023-01-28T21:29:33.539Z,30.10
2023-01-28T21:32:02.386Z,31.47
2023-01-28T21:34:32.406Z,31.67
2023-01-28T21:37:01.253Z,31.67
2023-01-28T21:39:30.336Z,29.83
2023-01-28T21:41:59.655Z,29.63
2023-01-28T21:44:28.191Z,28.57
2023-01-28T21:46:56.878Z,30.13
2023-01-28T21:49:25.332Z,29.87
2023-01-28T21:51:55.505Z,28.87
2023-01-28T21:54:24.023Z,27.97
2023-01-28T21:56:53.277Z,30.50
2023-01-28T21:59:30.775Z,29.43
2023-01-28T22:02:01.468Z,28.40
2023-01-28T22:04:33.919Z,28.77
2023-01-28T22:07:04.920Z,31.27
2023-01-28T22:09:34.857Z,30.77
2023-01-28T22:12:05.302Z,31.87
2023-01-28T22:14:33.949Z,29.00
2023-01-28T22:17:02.375Z,30.63
2023-01-28T22:19:31.102Z,34.17
2023-01-28T22:21:59.549Z,32.20
2023-01-28T22:24:30.662Z,30.33
2023-01-28T22:26:59.786Z,30.00
2023-01-28T22:29:28.331Z,29.20
2023-01-28T22:31:56.784Z,33.23
2023-01-28T22:34:26.319Z,34.37
2023-01-28T22:36:54.851Z,32.93
2023-01-28T22:39:23.399Z,30.37
2023-01-28T22:41:53.614Z,32.00
2023-01-28T22:44:22.060Z,32.67
2023-01-28T22:46:50.604Z,29.17
2023-01-28T22:49:19.268Z,30.60
2023-01-28T22:51:47.703Z,32.43
2023-01-28T22:54:16.148Z,31.50
2023-01-28T22:56:44.672Z,31.57
2023-01-28T22:59:14.511Z,30.67
2023-01-28T23:01:42.970Z,32.03
2023-01-28T23:04:12.239Z,30.00
2023-01-28T23:06:40.704Z,30.33
2023-01-28T23:09:09.296Z,30.90
2023-01-28T23:11:37.778Z,28.33
2023-01-28T23:14:23.723Z,28.63
2023-01-28T23:17:11.309Z,30.30
2023-01-28T23:19:57.308Z,30.30
2023-01-28T23:22:49.300Z,31.27
2023-01-28T23:25:18.597Z,30.47
2023-01-28T23:27:47.135Z,30.40
2023-01-28T23:30:16.561Z,29.33
2023-01-28T23:32:49.772Z,29.10
2023-01-28T23:35:19.138Z,31.53
2023-01-28T23:37:48.241Z,30.20
2023-01-28T23:40:17.843Z,30.20
2023-01-28T23:42:50.863Z,30.53
2023-01-28T23:45:19.990Z,29.57
2023-01-28T23:47:50.166Z,30.90
2023-01-28T23:50:19.305Z,28.07
2023-01-28T23:52:48.293Z,29.47
2023-01-28T23:55:17.129Z,31.63
2023-01-28T23:57:45.617Z,30.37
